首页
METAR-TAF:

METAR-TAF

机场 :

馬林迪, 肯尼亚

纬度: 03-14S, 经度: 040-06E, 海拔: 20米

当前天气观测

该预报发布于10小时和21分钟前的18:00 UTC
风速10节,风向
温度 28°C
湿度 84%
气压 1010 hPa
能见度10公里或以上
散云层高于2000英尺

METAR: HKML 211800Z 09010KT 9999 SCT020 28/25 Q1010

时间: 07:21 (04:21 UTC)

预报

该预报发布于5小时和21分钟前的23:00 UTC
预报有效从22日的 00点(UTC)到 22日的 24点(UTC)
风速节,风向
能见度10公里或以上
散云层高于1800英尺
成为
从 22日的 08点(UTC)到 22日的 12点(UTC)
风速15节,风向
散云层高于2500英尺
成为
从 22日的 15点(UTC)到 22日的 18点(UTC)
少量云层高于2200英尺
成为
从 22日的 18点(UTC)到 22日的 21点(UTC)
风速5节,风向
散云层高于1900英尺

TAF: HKML 212300Z 2200/2224 00000KT 9999 SCT018 BECMG 2208/2212 08015KT SCT025 BECMG 2215/2218 FEW022 BECMG 2218/2221 09005KT SCT019

超过4000个机场的气象观测和天气预报(METAR&TAF报告)。

可查询的气象台以黄色和红色小点在地图上表示。

将鼠标移到小点上方,可查看气象台名称。

然后点击查看天气观测和预报。

如需切换地图:点击带黑十字的绿色按钮放大地图;点击带横线的绿色按钮缩小地图;或者点击绿色箭头查看邻近地区的地图。


METAR-TAF: